createdAt,value
2023-03-05T00:00:56.814Z,73.48
2023-03-05T00:03:27.278Z,73.42
2023-03-05T00:06:00.030Z,73.57
2023-03-05T00:08:30.827Z,73.33
2023-03-05T00:11:02.701Z,73.28
2023-03-05T00:13:33.795Z,73.27
2023-03-05T00:16:07.897Z,72.95
2023-03-05T00:18:38.980Z,72.96
2023-03-05T00:21:20.682Z,72.95
2023-03-05T00:23:51.991Z,72.99
2023-03-05T00:26:23.852Z,73.07
2023-03-05T00:28:55.387Z,73.21
2023-03-05T00:31:30.134Z,73.16
2023-03-05T00:34:02.440Z,73.09
2023-03-05T00:36:33.122Z,73.10
2023-03-05T00:39:03.520Z,72.97
2023-03-05T00:41:35.875Z,72.80
2023-03-05T00:44:06.750Z,72.68
2023-03-05T00:46:37.659Z,72.61
2023-03-05T00:49:08.715Z,72.33
2023-03-05T00:51:39.138Z,72.10
2023-03-05T00:54:09.847Z,71.09
2023-03-05T00:56:40.220Z,70.88
2023-03-05T00:59:10.765Z,70.85
2023-03-05T01:01:41.137Z,70.96
2023-03-05T01:04:12.005Z,70.98
2023-03-05T01:06:45.082Z,70.58
2023-03-05T01:09:17.449Z,70.42
2023-03-05T01:11:47.827Z,70.49
2023-03-05T01:14:18.209Z,70.42
2023-03-05T01:16:49.051Z,70.41
2023-03-05T01:19:19.561Z,70.56
2023-03-05T01:21:50.023Z,70.63
2023-03-05T01:24:20.488Z,70.59
2023-03-05T01:26:50.967Z,70.62
2023-03-05T01:29:21.322Z,70.65
2023-03-05T01:31:51.894Z,70.72
2023-03-05T01:34:22.340Z,70.65
2023-03-05T01:36:52.743Z,70.16
2023-03-05T01:39:23.202Z,69.50
2023-03-05T01:41:53.566Z,69.31
2023-03-05T01:44:29.872Z,69.51
2023-03-05T01:47:00.204Z,69.77
2023-03-05T01:49:32.389Z,69.68
2023-03-05T01:52:06.414Z,69.61
2023-03-05T01:54:40.316Z,69.78
2023-03-05T01:57:13.458Z,69.81
2023-03-05T01:59:45.917Z,69.77
2023-03-05T02:02:16.553Z,70.00
2023-03-05T02:04:50.620Z,69.92
2023-03-05T02:07:21.304Z,69.93
2023-03-05T02:09:52.107Z,69.81
2023-03-05T02:12:22.791Z,70.03
2023-03-05T02:14:59.196Z,70.06
2023-03-05T02:17:30.448Z,70.07
2023-03-05T02:20:07.470Z,70.24
2023-03-05T02:22:38.042Z,70.31
2023-03-05T02:25:17.326Z,70.35
2023-03-05T02:27:55.796Z,70.44
2023-03-05T02:30:28.322Z,70.38
2023-03-05T02:32:58.947Z,70.28
2023-03-05T02:35:29.957Z,70.37
2023-03-05T02:38:00.712Z,70.58
2023-03-05T02:40:31.447Z,70.39
2023-03-05T02:43:01.831Z,70.50
2023-03-05T02:45:33.023Z,70.53
2023-03-05T02:48:03.536Z,70.36
2023-03-05T02:50:34.325Z,70.44
2023-03-05T02:53:04.891Z,70.52
2023-03-05T02:55:35.420Z,70.44
2023-03-05T02:58:06.062Z,70.14
2023-03-05T03:00:36.976Z,69.91
2023-03-05T03:03:07.810Z,69.91
2023-03-05T03:05:38.722Z,70.00
2023-03-05T03:08:10.324Z,70.19
2023-03-05T03:10:40.756Z,70.29
2023-03-05T03:13:11.052Z,70.14
2023-03-05T03:15:41.537Z,69.97
2023-03-05T03:18:11.835Z,69.99
2023-03-05T03:20:42.216Z,69.93
2023-03-05T03:23:12.593Z,69.96
2023-03-05T03:25:43.076Z,70.05
2023-03-05T03:28:13.387Z,70.06
2023-03-05T03:30:43.858Z,70.21
2023-03-05T03:33:14.407Z,70.01
2023-03-05T03:35:44.812Z,70.22
2023-03-05T03:38:15.289Z,70.26
2023-03-05T03:40:45.675Z,70.39
2023-03-05T03:43:16.096Z,70.28
2023-03-05T03:45:47.683Z,70.43
2023-03-05T03:48:18.089Z,70.47
2023-03-05T03:50:48.616Z,70.39
2023-03-05T03:53:19.451Z,70.36
2023-03-05T03:55:50.021Z,70.48
2023-03-05T03:58:20.370Z,70.30
2023-03-05T04:00:50.840Z,70.10
2023-03-05T04:03:21.786Z,70.22
2023-03-05T04:05:52.345Z,70.15
2023-03-05T04:08:22.913Z,70.04
2023-03-05T04:10:53.276Z,69.32
2023-03-05T04:13:23.651Z,67.88
2023-03-05T04:15:54.419Z,67.25
2023-03-05T04:18:24.987Z,66.55
2023-03-05T04:20:55.689Z,66.14
2023-03-05T04:23:26.054Z,65.82
2023-03-05T04:25:56.441Z,65.68
2023-03-05T04:28:27.048Z,65.54
2023-03-05T04:30:57.426Z,65.36
2023-03-05T04:33:27.891Z,65.31
2023-03-05T04:35:58.336Z,65.36
2023-03-05T04:38:28.702Z,65.29
2023-03-05T04:40:59.724Z,65.10
2023-03-05T04:43:30.103Z,65.23
2023-03-05T04:46:00.480Z,65.23
2023-03-05T04:48:30.904Z,65.06
2023-03-05T04:51:01.285Z,65.18
2023-03-05T04:53:32.078Z,65.01
2023-03-05T04:56:02.878Z,65.14
2023-03-05T04:58:33.284Z,65.24
2023-03-05T05:01:07.616Z,64.92
2023-03-05T05:03:38.069Z,64.89
2023-03-05T05:06:08.759Z,64.90
2023-03-05T05:08:39.637Z,65.27
2023-03-05T05:11:11.923Z,65.38
2023-03-05T05:13:42.246Z,65.37
2023-03-05T05:16:12.674Z,65.56
2023-03-05T05:18:43.022Z,65.61
2023-03-05T05:21:15.028Z,65.79
2023-03-05T05:23:45.347Z,65.82
2023-03-05T05:26:15.938Z,65.86
2023-03-05T05:28:46.946Z,65.87
2023-03-05T05:31:18.390Z,65.79
2023-03-05T05:33:49.967Z,65.67
2023-03-05T05:36:22.290Z,65.66
2023-03-05T05:38:52.705Z,65.75
2023-03-05T05:41:23.829Z,66.05
2023-03-05T05:43:55.103Z,66.07
2023-03-05T05:46:27.852Z,65.94
2023-03-05T05:48:59.870Z,65.57
2023-03-05T05:51:31.866Z,65.68
2023-03-05T05:54:06.051Z,65.90
2023-03-05T05:56:37.202Z,65.91
2023-03-05T05:59:09.027Z,65.84
2023-03-05T06:01:41.371Z,65.82
2023-03-05T06:04:13.173Z,65.64
2023-03-05T06:06:45.889Z,65.50
2023-03-05T06:09:19.898Z,65.31
2023-03-05T06:11:52.065Z,65.53
2023-03-05T06:14:24.978Z,65.59
2023-03-05T06:16:55.498Z,65.75
2023-03-05T06:19:27.919Z,65.40
2023-03-05T06:21:58.982Z,65.66
2023-03-05T06:24:31.967Z,65.87
2023-03-05T06:27:03.118Z,66.07
2023-03-05T06:29:34.864Z,66.28
2023-03-05T06:32:09.082Z,66.55
2023-03-05T06:34:42.004Z,66.66
2023-03-05T06:37:13.252Z,66.72
2023-03-05T06:39:45.031Z,66.69
2023-03-05T06:47:47.610Z,66.87
2023-03-05T06:50:18.229Z,66.84
2023-03-05T06:52:51.711Z,66.95
2023-03-05T06:55:22.527Z,67.16
2023-03-05T06:57:53.010Z,67.18
2023-03-05T07:00:29.540Z,67.14
2023-03-05T07:02:59.924Z,67.14
2023-03-05T07:05:31.723Z,67.31
2023-03-05T07:08:04.106Z,67.27
2023-03-05T07:10:34.621Z,67.16
2023-03-05T07:13:05.211Z,67.08
2023-03-05T07:15:36.118Z,67.15
2023-03-05T07:18:07.065Z,67.32
2023-03-05T07:20:38.308Z,67.33
2023-03-05T07:23:08.837Z,67.55
2023-03-05T07:25:40.100Z,67.60
2023-03-05T07:28:11.673Z,67.73
2023-03-05T07:30:42.081Z,67.75
2023-03-05T07:33:12.474Z,67.86
2023-03-05T07:35:43.857Z,67.81
2023-03-05T07:38:14.241Z,67.78
2023-03-05T07:40:44.658Z,67.81
2023-03-05T07:43:15.036Z,67.70
2023-03-05T07:45:46.447Z,67.67
2023-03-05T07:48:20.768Z,67.55
2023-03-05T07:50:51.633Z,67.62
2023-03-05T07:53:22.182Z,67.66
2023-03-05T07:55:53.064Z,67.82
2023-03-05T07:58:23.503Z,68.00
2023-03-05T08:00:53.899Z,68.13
2023-03-05T08:03:24.320Z,68.27
2023-03-05T08:05:55.074Z,68.13
2023-03-05T08:08:28.699Z,68.12
2023-03-05T08:10:59.486Z,68.02
2023-03-05T08:13:29.819Z,67.99
2023-03-05T08:16:00.440Z,67.77
2023-03-05T08:18:31.090Z,67.46
2023-03-05T08:21:01.601Z,67.54
2023-03-05T08:23:34.389Z,67.47
2023-03-05T08:26:05.069Z,67.23
2023-03-05T08:28:35.638Z,67.19
2023-03-05T08:31:11.207Z,66.82
2023-03-05T08:33:42.055Z,66.75
2023-03-05T08:36:13.241Z,66.65
2023-03-05T08:38:44.636Z,66.48
2023-03-05T08:41:15.656Z,66.53
2023-03-05T08:43:46.030Z,66.41
2023-03-05T08:46:17.578Z,66.28
2023-03-05T08:48:48.188Z,66.03
2023-03-05T08:51:20.194Z,65.69
2023-03-05T08:53:50.589Z,65.63
2023-03-05T08:56:21.251Z,65.16
2023-03-05T08:58:53.008Z,64.90
2023-03-05T09:01:23.886Z,65.06
2023-03-05T09:03:54.276Z,64.51
2023-03-05T09:06:24.790Z,64.63
2023-03-05T09:08:55.637Z,64.59
2023-03-05T09:11:26.106Z,64.38
2023-03-05T09:13:56.400Z,64.05
2023-03-05T09:16:26.885Z,63.64
2023-03-05T09:18:57.474Z,63.22
2023-03-05T09:21:28.300Z,63.17
2023-03-05T09:24:00.470Z,63.00
2023-03-05T09:26:31.117Z,63.04
2023-03-05T09:29:01.466Z,62.79
2023-03-05T09:31:31.890Z,62.74
2023-03-05T09:34:02.381Z,62.29
2023-03-05T09:36:33.551Z,62.46
2023-03-05T09:39:06.865Z,62.43
2023-03-05T09:41:58.616Z,61.74
2023-03-05T09:44:34.726Z,61.37
2023-03-05T09:47:14.822Z,61.21
2023-03-05T09:49:55.437Z,60.64
2023-03-05T09:52:32.453Z,60.25
2023-03-05T09:55:03.529Z,60.06
2023-03-05T09:57:37.569Z,59.76
2023-03-05T10:00:12.672Z,59.07
2023-03-05T10:02:49.616Z,58.74
2023-03-05T10:05:23.860Z,58.49
2023-03-05T10:07:57.834Z,58.53
2023-03-05T10:10:31.710Z,58.49
2023-03-05T10:13:05.787Z,58.63
2023-03-05T10:15:40.913Z,58.84
2023-03-05T10:18:22.717Z,58.99
2023-03-05T10:21:00.576Z,59.12
2023-03-05T10:23:55.837Z,59.00
2023-03-05T10:26:36.286Z,59.12
2023-03-05T10:29:22.276Z,59.14
2023-03-05T10:32:04.098Z,59.60
2023-03-05T10:34:54.282Z,60.30
2023-03-05T10:37:40.199Z,60.67
2023-03-05T10:40:15.983Z,61.21
2023-03-05T10:42:51.955Z,61.74
2023-03-05T10:45:25.669Z,62.60
2023-03-05T10:47:58.654Z,62.97
2023-03-05T10:50:29.069Z,63.53
2023-03-05T10:53:13.984Z,63.79
2023-03-05T10:55:44.636Z,64.18
2023-03-05T10:58:16.393Z,64.50
2023-03-05T11:03:58.452Z,65.02
2023-03-05T11:06:37.158Z,65.41
2023-03-05T11:09:22.690Z,65.61
2023-03-05T11:12:14.492Z,65.86
2023-03-05T11:14:46.887Z,66.10
2023-03-05T11:17:29.055Z,66.20
2023-03-05T11:20:17.513Z,66.47
2023-03-05T11:23:05.157Z,66.56
2023-03-05T11:25:36.852Z,66.25
2023-03-05T11:28:07.376Z,66.21
2023-03-05T11:30:39.011Z,65.77
2023-03-05T11:33:15.728Z,65.65
2023-03-05T11:35:47.324Z,65.45
2023-03-05T11:38:21.676Z,65.31
2023-03-05T11:40:52.660Z,64.69
2023-03-05T11:43:25.005Z,64.10
2023-03-05T11:46:07.308Z,63.75
2023-03-05T11:48:39.802Z,63.49
2023-03-05T11:51:17.106Z,62.88
2023-03-05T11:53:49.200Z,62.14
2023-03-05T11:56:23.220Z,61.56
2023-03-05T11:58:55.853Z,60.92
2023-03-05T12:01:28.454Z,60.37
2023-03-05T12:04:00.148Z,60.21
2023-03-05T12:06:35.944Z,59.61
2023-03-05T12:09:14.095Z,59.05
2023-03-05T12:11:44.736Z,57.67
2023-03-05T12:14:21.181Z,57.27
2023-03-05T12:16:54.624Z,56.71
2023-03-05T12:19:37.446Z,56.45
2023-03-05T12:22:18.370Z,56.60
2023-03-05T12:24:49.064Z,55.97
2023-03-05T12:27:34.301Z,55.63
2023-03-05T12:30:05.675Z,55.81
2023-03-05T12:33:02.374Z,55.71
2023-03-05T12:35:38.630Z,55.49
2023-03-05T12:38:32.357Z,54.85
2023-03-05T12:41:45.125Z,55.09
2023-03-05T12:44:23.824Z,55.45
2023-03-05T12:47:23.892Z,55.24
2023-03-05T12:49:54.481Z,55.20
2023-03-05T12:52:30.806Z,55.19
2023-03-05T12:55:20.217Z,55.68
2023-03-05T12:57:53.956Z,56.10
2023-03-05T13:00:28.510Z,55.80
2023-03-05T13:03:01.983Z,55.66
2023-03-05T13:05:34.841Z,55.67
2023-03-05T13:08:23.071Z,55.34
2023-03-05T13:10:58.494Z,55.25
2023-03-05T13:13:30.503Z,55.45
2023-03-05T13:16:01.007Z,55.60
2023-03-05T13:18:33.155Z,55.74
2023-03-05T13:21:07.065Z,55.46
2023-03-05T13:23:38.310Z,55.50
2023-03-05T13:26:18.631Z,54.97
2023-03-05T13:29:06.247Z,54.93
2023-03-05T13:31:41.548Z,54.86
2023-03-05T13:34:17.181Z,54.68
2023-03-05T13:36:54.557Z,54.52
2023-03-05T13:39:28.322Z,54.25
2023-03-05T13:42:05.325Z,54.22
2023-03-05T13:44:37.480Z,54.47
2023-03-05T13:47:16.835Z,54.44
2023-03-05T13:49:48.344Z,54.14
2023-03-05T13:52:29.699Z,54.00
2023-03-05T13:55:00.615Z,54.06
2023-03-05T13:57:38.518Z,53.79
2023-03-05T14:00:24.997Z,53.76
2023-03-05T14:02:58.597Z,53.87
2023-03-05T14:05:31.593Z,53.55
2023-03-05T14:08:02.270Z,53.98
2023-03-05T14:10:36.241Z,53.90
2023-03-05T14:13:13.310Z,54.03
2023-03-05T14:16:04.229Z,54.17
2023-03-05T14:18:35.146Z,54.63
2023-03-05T14:28:29.287Z,54.90
2023-03-05T14:31:00.048Z,55.07
2023-03-05T14:33:33.159Z,55.12
2023-03-05T14:36:04.873Z,55.11
2023-03-05T14:38:35.937Z,55.40
2023-03-05T14:41:29.214Z,55.49
2023-03-05T14:43:59.687Z,55.53
2023-03-05T14:46:30.495Z,55.43
2023-03-05T14:49:01.027Z,55.51
2023-03-05T14:51:31.625Z,55.61
2023-03-05T14:54:02.113Z,55.80
2023-03-05T14:56:32.628Z,56.11
2023-03-05T14:59:03.188Z,56.25
2023-03-05T15:01:33.897Z,56.45
2023-03-05T15:04:04.621Z,56.77
2023-03-05T15:06:38.075Z,56.94
2023-03-05T15:09:12.036Z,56.94
2023-03-05T15:11:42.627Z,57.08
2023-03-05T15:14:13.683Z,57.14
2023-03-05T15:16:46.746Z,57.79
2023-03-05T15:19:17.368Z,58.08
2023-03-05T15:21:48.619Z,58.22
2023-03-05T15:24:19.525Z,58.46
2023-03-05T15:26:50.297Z,58.80
2023-03-05T15:29:21.084Z,58.70
2023-03-05T15:31:55.256Z,58.77
2023-03-05T15:34:25.669Z,58.86
2023-03-05T15:36:56.663Z,58.98
2023-03-05T15:39:28.741Z,59.00
2023-03-05T15:41:59.547Z,58.88
2023-03-05T15:44:30.226Z,58.93
2023-03-05T15:47:00.862Z,59.13
2023-03-05T15:49:31.318Z,59.46
2023-03-05T15:52:02.161Z,59.51
2023-03-05T15:54:32.964Z,59.65
2023-03-05T15:57:03.635Z,59.41
2023-03-05T15:59:34.208Z,59.52
2023-03-05T16:02:05.233Z,59.64
2023-03-05T16:04:35.786Z,59.55
2023-03-05T16:07:06.559Z,59.62
2023-03-05T16:09:40.362Z,59.56
2023-03-05T16:12:13.542Z,59.60
2023-03-05T16:14:45.128Z,59.42
2023-03-05T16:17:16.402Z,59.67
2023-03-05T16:19:49.375Z,59.80
2023-03-05T16:22:18.671Z,59.74
2023-03-05T16:24:49.795Z,59.92
2023-03-05T16:27:20.228Z,60.13
2023-03-05T16:29:51.155Z,60.18
2023-03-05T16:32:21.810Z,60.11
2023-03-05T16:34:52.370Z,60.11
2023-03-05T16:37:24.952Z,60.31
2023-03-05T16:39:55.263Z,60.41
2023-03-05T16:42:25.664Z,60.69
2023-03-05T16:44:56.729Z,60.71
2023-03-05T16:47:27.248Z,60.75
2023-03-05T16:49:57.813Z,60.87
2023-03-05T16:52:29.189Z,61.03
2023-03-05T16:54:59.600Z,61.33
2023-03-05T16:57:29.954Z,61.50
2023-03-05T17:00:02.497Z,61.78
2023-03-05T17:02:33.364Z,61.80
2023-03-05T17:05:03.733Z,61.73
2023-03-05T17:07:34.277Z,61.70
2023-03-05T17:10:05.030Z,61.60
2023-03-05T17:12:35.344Z,61.81
2023-03-05T17:15:07.116Z,61.64
2023-03-05T17:17:38.931Z,61.74
2023-03-05T17:20:13.125Z,61.74
2023-03-05T17:22:43.641Z,61.64
2023-03-05T17:25:14.044Z,61.72
2023-03-05T17:27:44.419Z,61.85
2023-03-05T17:30:16.643Z,62.04
2023-03-05T17:32:47.103Z,62.03
2023-03-05T17:35:21.331Z,62.10
2023-03-05T17:37:55.269Z,62.28
2023-03-05T17:40:26.596Z,62.23
2023-03-05T17:42:57.073Z,62.11
2023-03-05T17:45:27.703Z,62.18
2023-03-05T17:47:58.855Z,62.37
2023-03-05T17:50:29.465Z,62.42
2023-03-05T17:52:59.877Z,62.30
2023-03-05T17:55:30.528Z,62.14
2023-03-05T17:58:01.614Z,62.20
2023-03-05T18:00:33.012Z,62.29
2023-03-05T18:03:03.609Z,62.50
2023-03-05T18:05:34.516Z,62.76
2023-03-05T18:08:05.221Z,63.09
2023-03-05T18:10:36.424Z,63.27
2023-03-05T18:13:06.823Z,63.22
2023-03-05T18:15:41.768Z,63.05
2023-03-05T18:18:12.226Z,63.22
2023-03-05T18:20:42.997Z,63.06
2023-03-05T18:23:14.003Z,63.21
2023-03-05T18:25:44.501Z,63.32
2023-03-05T18:28:16.162Z,63.40
2023-03-05T18:30:47.246Z,63.60
2023-03-05T18:33:20.340Z,63.69
2023-03-05T18:35:52.371Z,63.46
2023-03-05T18:38:23.895Z,63.62
2023-03-05T18:40:55.719Z,63.69
2023-03-05T18:43:26.805Z,63.71
2023-03-05T18:45:58.415Z,63.92
2023-03-05T18:48:29.065Z,63.73
2023-03-05T18:51:01.245Z,63.81
2023-03-05T18:53:32.382Z,63.72
2023-03-05T18:56:03.027Z,63.65
2023-03-05T18:58:33.737Z,63.63
2023-03-05T19:01:04.683Z,63.89
2023-03-05T19:03:35.759Z,64.02
2023-03-05T19:06:08.918Z,63.88
2023-03-05T19:08:39.464Z,63.93
2023-03-05T19:11:16.832Z,64.02
2023-03-05T19:13:50.279Z,64.14
2023-03-05T19:16:21.961Z,64.14
2023-03-05T19:19:03.934Z,64.21
2023-03-05T19:21:34.971Z,64.04
2023-03-05T19:24:06.387Z,64.12
2023-03-05T19:26:37.127Z,64.20
2023-03-05T19:29:08.350Z,63.95
2023-03-05T19:31:39.151Z,63.97
2023-03-05T19:34:09.727Z,63.89
2023-03-05T19:36:40.387Z,63.62
2023-03-05T19:39:11.269Z,63.79
2023-03-05T19:41:41.863Z,63.77
2023-03-05T19:44:13.287Z,63.82
2023-03-05T19:46:43.909Z,63.68
2023-03-05T19:49:14.428Z,63.83
2023-03-05T19:51:46.341Z,63.77
2023-03-05T19:54:18.183Z,63.89
2023-03-05T19:56:52.904Z,63.86
2023-03-05T19:59:24.995Z,63.78
2023-03-05T20:01:57.270Z,63.86
2023-03-05T20:04:28.356Z,63.90
2023-03-05T20:06:59.004Z,63.86
2023-03-05T20:09:29.864Z,63.73
2023-03-05T20:12:02.732Z,63.81
2023-03-05T20:14:33.190Z,63.79
2023-03-05T20:17:04.006Z,63.76
2023-03-05T20:19:34.839Z,63.86
2023-03-05T20:22:05.274Z,63.76
2023-03-05T20:24:35.842Z,63.96
2023-03-05T20:27:07.170Z,64.07
2023-03-05T20:29:37.901Z,64.33
2023-03-05T20:32:08.977Z,64.45
2023-03-05T20:34:39.386Z,64.48
2023-03-05T20:37:09.998Z,64.48
2023-03-05T20:39:40.540Z,64.43
2023-03-05T20:42:11.206Z,64.57
2023-03-05T20:44:42.532Z,64.58
2023-03-05T20:47:26.098Z,64.73
2023-03-05T20:49:58.161Z,64.71
2023-03-05T20:52:28.889Z,64.71
2023-03-05T20:54:59.666Z,64.70
2023-03-05T20:57:30.337Z,64.73
2023-03-05T21:00:00.739Z,64.65
2023-03-05T21:02:31.810Z,64.68
2023-03-05T21:05:02.398Z,64.71
2023-03-05T21:07:33.328Z,64.64
2023-03-05T21:10:04.065Z,64.61
2023-03-05T21:12:35.350Z,64.54
2023-03-05T21:15:06.962Z,64.71
2023-03-05T21:17:37.536Z,64.72
2023-03-05T21:20:10.469Z,64.79
2023-03-05T21:22:41.204Z,64.89
2023-03-05T21:25:20.727Z,65.13
2023-03-05T21:27:58.308Z,65.25
2023-03-05T21:30:33.584Z,65.23
2023-03-05T21:33:05.338Z,65.36
2023-03-05T21:35:36.829Z,65.28
2023-03-05T21:38:08.370Z,65.25
2023-03-05T21:40:43.539Z,65.31
2023-03-05T21:43:15.214Z,65.36
2023-03-05T21:45:47.134Z,65.32
2023-03-05T21:48:18.183Z,65.43
2023-03-05T21:50:49.901Z,65.53
2023-03-05T21:53:21.550Z,65.58
2023-03-05T21:56:04.014Z,65.76
2023-03-05T21:58:35.403Z,65.63
2023-03-05T22:01:06.237Z,65.78
2023-03-05T22:03:36.805Z,65.92
2023-03-05T22:06:11.859Z,65.87
2023-03-05T22:08:42.457Z,65.95
2023-03-05T22:11:14.895Z,65.99
2023-03-05T22:13:45.417Z,65.77
2023-03-05T22:16:23.600Z,65.86
2023-03-05T22:18:54.258Z,66.10
2023-03-05T22:21:27.282Z,66.08
2023-03-05T22:23:57.005Z,65.98
2023-03-05T22:26:32.342Z,66.02
2023-03-05T22:29:02.756Z,66.04
2023-03-05T22:31:33.814Z,65.99
2023-03-05T22:34:04.220Z,65.86
2023-03-05T22:36:35.158Z,66.10
2023-03-05T22:39:05.819Z,66.07
2023-03-05T22:41:37.368Z,66.06
2023-03-05T22:44:10.288Z,66.06
2023-03-05T22:46:41.601Z,66.20
2023-03-05T22:49:13.321Z,66.08
2023-03-05T22:51:46.311Z,65.86
2023-03-05T22:54:18.368Z,65.87
2023-03-05T22:56:51.322Z,65.83
2023-03-05T22:59:23.335Z,65.91
2023-03-05T23:01:54.787Z,65.98
2023-03-05T23:04:40.464Z,66.02
2023-03-05T23:07:12.677Z,66.04
2023-03-05T23:09:45.405Z,66.11
2023-03-05T23:12:18.396Z,66.01
2023-03-05T23:14:49.394Z,66.09
2023-03-05T23:17:22.659Z,66.09
2023-03-05T23:19:56.409Z,66.12
2023-03-05T23:22:28.382Z,66.07
2023-03-05T23:24:59.691Z,65.99
2023-03-05T23:27:31.389Z,65.96
2023-03-05T23:30:16.197Z,65.99
2023-03-05T23:32:53.427Z,66.05
2023-03-05T23:35:27.880Z,66.27
2023-03-05T23:38:00.577Z,66.23
2023-03-05T23:48:51.367Z,66.30
2023-03-05T23:51:21.732Z,66.25
2023-03-05T23:53:52.198Z,66.43
2023-03-05T23:56:22.544Z,66.57
2023-03-05T23:58:56.070Z,66.63
